sensor_id;sensor_type;location;lat;lon;timestamp;P1;durP1;ratioP1;P2;durP2;ratioP2
12194;SDS011;27023;42.680;23.132;2022-11-15T00:01:53;30.93;;;29.43;;
12194;SDS011;27023;42.680;23.132;2022-11-15T00:04:22;34.40;;;32.77;;
12194;SDS011;27023;42.680;23.132;2022-11-15T00:06:48;39.67;;;37.67;;
12194;SDS011;27023;42.680;23.132;2022-11-15T00:09:15;44.40;;;42.27;;
12194;SDS011;27023;42.680;23.132;2022-11-15T00:11:42;50.93;;;48.40;;
12194;SDS011;27023;42.680;23.132;2022-11-15T00:14:08;50.90;;;48.33;;
12194;SDS011;27023;42.680;23.132;2022-11-15T00:16:35;60.27;;;57.23;;
12194;SDS011;27023;42.680;23.132;2022-11-15T00:19:02;57.03;;;54.17;;
12194;SDS011;27023;42.680;23.132;2022-11-15T00:21:30;64.87;;;61.50;;
12194;SDS011;27023;42.680;23.132;2022-11-15T00:23:56;44.03;;;41.93;;
12194;SDS011;27023;42.680;23.132;2022-11-15T00:26:24;32.77;;;31.23;;
12194;SDS011;27023;42.680;23.132;2022-11-15T00:28:51;29.10;;;27.77;;
12194;SDS011;27023;42.680;23.132;2022-11-15T00:31:18;32.50;;;30.97;;
12194;SDS011;27023;42.680;23.132;2022-11-15T00:33:45;28.77;;;27.30;;
12194;SDS011;27023;42.680;23.132;2022-11-15T00:36:12;36.27;;;34.40;;
12194;SDS011;27023;42.680;23.132;2022-11-15T00:38:40;40.67;;;38.73;;
12194;SDS011;27023;42.680;23.132;2022-11-15T00:41:07;38.90;;;37.07;;
12194;SDS011;27023;42.680;23.132;2022-11-15T00:43:34;29.50;;;28.17;;
12194;SDS011;27023;42.680;23.132;2022-11-15T00:46:01;28.33;;;27.03;;
12194;SDS011;27023;42.680;23.132;2022-11-15T00:48:28;35.03;;;33.40;;
12194;SDS011;27023;42.680;23.132;2022-11-15T00:50:54;48.03;;;45.70;;
12194;SDS011;27023;42.680;23.132;2022-11-15T00:53:21;39.83;;;37.93;;
12194;SDS011;27023;42.680;23.132;2022-11-15T00:55:49;37.90;;;36.07;;
12194;SDS011;27023;42.680;23.132;2022-11-15T00:58:16;48.93;;;46.33;;
12194;SDS011;27023;42.680;23.132;2022-11-15T01:00:42;43.57;;;41.30;;
12194;SDS011;27023;42.680;23.132;2022-11-15T01:03:09;28.50;;;27.20;;
12194;SDS011;27023;42.680;23.132;2022-11-15T01:05:36;22.03;;;20.93;;
12194;SDS011;27023;42.680;23.132;2022-11-15T01:08:03;20.13;;;19.27;;
12194;SDS011;27023;42.680;23.132;2022-11-15T01:10:30;16.83;;;16.13;;
12194;SDS011;27023;42.680;23.132;2022-11-15T01:12:58;19.03;;;18.20;;
12194;SDS011;27023;42.680;23.132;2022-11-15T01:15:25;14.90;;;14.30;;
12194;SDS011;27023;42.680;23.132;2022-11-15T01:17:51;14.67;;;14.03;;
12194;SDS011;27023;42.680;23.132;2022-11-15T01:20:18;17.20;;;16.40;;
12194;SDS011;27023;42.680;23.132;2022-11-15T01:22:45;17.97;;;17.30;;
12194;SDS011;27023;42.680;23.132;2022-11-15T01:25:11;15.90;;;15.30;;
12194;SDS011;27023;42.680;23.132;2022-11-15T01:27:38;14.97;;;14.47;;
12194;SDS011;27023;42.680;23.132;2022-11-15T01:30:07;16.77;;;15.97;;
12194;SDS011;27023;42.680;23.132;2022-11-15T01:32:34;17.73;;;17.00;;
12194;SDS011;27023;42.680;23.132;2022-11-15T01:35:01;17.57;;;16.80;;
12194;SDS011;27023;42.680;23.132;2022-11-15T01:37:28;17.97;;;17.10;;
12194;SDS011;27023;42.680;23.132;2022-11-15T01:39:54;19.20;;;18.27;;
12194;SDS011;27023;42.680;23.132;2022-11-15T01:42:21;16.87;;;16.20;;
12194;SDS011;27023;42.680;23.132;2022-11-15T01:44:48;19.07;;;18.30;;
12194;SDS011;27023;42.680;23.132;2022-11-15T01:47:18;18.97;;;18.20;;
12194;SDS011;27023;42.680;23.132;2022-11-15T01:49:51;17.57;;;16.87;;
12194;SDS011;27023;42.680;23.132;2022-11-15T01:52:24;19.70;;;18.87;;
12194;SDS011;27023;42.680;23.132;2022-11-15T01:54:55;21.40;;;20.37;;
12194;SDS011;27023;42.680;23.132;2022-11-15T01:57:27;20.33;;;19.53;;
12194;SDS011;27023;42.680;23.132;2022-11-15T01:59:54;18.83;;;18.10;;
12194;SDS011;27023;42.680;23.132;2022-11-15T02:02:23;19.80;;;19.00;;
12194;SDS011;27023;42.680;23.132;2022-11-15T02:04:50;20.17;;;19.33;;
12194;SDS011;27023;42.680;23.132;2022-11-15T02:07:18;19.43;;;18.50;;
12194;SDS011;27023;42.680;23.132;2022-11-15T02:09:47;17.43;;;16.60;;
12194;SDS011;27023;42.680;23.132;2022-11-15T02:12:15;16.97;;;16.23;;
12194;SDS011;27023;42.680;23.132;2022-11-15T02:14:46;21.00;;;20.13;;
12194;SDS011;27023;42.680;23.132;2022-11-15T02:17:29;17.40;;;16.70;;
12194;SDS011;27023;42.680;23.132;2022-11-15T02:20:14;17.03;;;16.30;;
12194;SDS011;27023;42.680;23.132;2022-11-15T02:23:07;14.70;;;14.00;;
12194;SDS011;27023;42.680;23.132;2022-11-15T02:26:02;20.10;;;19.17;;
12194;SDS011;27023;42.680;23.132;2022-11-15T02:28:48;16.53;;;15.93;;
12194;SDS011;27023;42.680;23.132;2022-11-15T02:31:25;17.00;;;16.30;;
12194;SDS011;27023;42.680;23.132;2022-11-15T02:33:59;18.20;;;17.43;;
12194;SDS011;27023;42.680;23.132;2022-11-15T02:36:34;17.43;;;16.80;;
12194;SDS011;27023;42.680;23.132;2022-11-15T02:39:08;19.53;;;18.73;;
12194;SDS011;27023;42.680;23.132;2022-11-15T02:41:40;20.53;;;19.63;;
12194;SDS011;27023;42.680;23.132;2022-11-15T02:44:14;22.87;;;21.87;;
12194;SDS011;27023;42.680;23.132;2022-11-15T02:46:47;21.87;;;20.97;;
12194;SDS011;27023;42.680;23.132;2022-11-15T02:49:34;22.57;;;21.60;;
12194;SDS011;27023;42.680;23.132;2022-11-15T02:52:03;20.73;;;19.80;;
12194;SDS011;27023;42.680;23.132;2022-11-15T02:54:31;19.83;;;18.97;;
12194;SDS011;27023;42.680;23.132;2022-11-15T02:57:00;22.20;;;21.20;;
12194;SDS011;27023;42.680;23.132;2022-11-15T02:59:50;27.23;;;25.93;;
12194;SDS011;27023;42.680;23.132;2022-11-15T03:02:38;29.63;;;28.27;;
12194;SDS011;27023;42.680;23.132;2022-11-15T03:05:14;26.63;;;25.47;;
12194;SDS011;27023;42.680;23.132;2022-11-15T03:07:48;27.00;;;25.77;;
12194;SDS011;27023;42.680;23.132;2022-11-15T03:10:21;29.07;;;27.73;;
12194;SDS011;27023;42.680;23.132;2022-11-15T03:12:54;22.67;;;21.57;;
12194;SDS011;27023;42.680;23.132;2022-11-15T03:15:25;20.03;;;19.23;;
12194;SDS011;27023;42.680;23.132;2022-11-15T03:17:58;24.03;;;22.97;;
12194;SDS011;27023;42.680;23.132;2022-11-15T03:20:27;21.50;;;20.57;;
12194;SDS011;27023;42.680;23.132;2022-11-15T03:22:55;22.17;;;21.17;;
12194;SDS011;27023;42.680;23.132;2022-11-15T03:25:26;20.60;;;19.73;;
12194;SDS011;27023;42.680;23.132;2022-11-15T03:27:56;26.30;;;24.97;;
12194;SDS011;27023;42.680;23.132;2022-11-15T03:30:28;22.27;;;21.23;;
12194;SDS011;27023;42.680;23.132;2022-11-15T03:32:58;18.80;;;18.00;;
12194;SDS011;27023;42.680;23.132;2022-11-15T03:35:29;23.27;;;22.27;;
12194;SDS011;27023;42.680;23.132;2022-11-15T03:38:00;19.20;;;18.43;;
12194;SDS011;27023;42.680;23.132;2022-11-15T03:40:35;20.23;;;19.40;;
12194;SDS011;27023;42.680;23.132;2022-11-15T03:43:06;23.07;;;22.07;;
12194;SDS011;27023;42.680;23.132;2022-11-15T03:45:41;29.47;;;28.03;;
12194;SDS011;27023;42.680;23.132;2022-11-15T03:48:14;26.10;;;24.97;;
12194;SDS011;27023;42.680;23.132;2022-11-15T03:50:46;22.87;;;21.90;;
12194;SDS011;27023;42.680;23.132;2022-11-15T03:53:14;22.17;;;21.23;;
12194;SDS011;27023;42.680;23.132;2022-11-15T03:55:41;23.80;;;22.40;;
12194;SDS011;27023;42.680;23.132;2022-11-15T03:58:07;20.33;;;19.43;;
12194;SDS011;27023;42.680;23.132;2022-11-15T04:00:34;23.10;;;22.00;;
12194;SDS011;27023;42.680;23.132;2022-11-15T04:03:01;21.83;;;20.93;;
12194;SDS011;27023;42.680;23.132;2022-11-15T04:05:29;21.83;;;20.90;;
12194;SDS011;27023;42.680;23.132;2022-11-15T04:07:56;26.77;;;25.47;;
12194;SDS011;27023;42.680;23.132;2022-11-15T04:10:22;29.47;;;28.07;;
12194;SDS011;27023;42.680;23.132;2022-11-15T04:12:49;31.70;;;30.10;;
12194;SDS011;27023;42.680;23.132;2022-11-15T04:15:16;30.33;;;28.97;;
12194;SDS011;27023;42.680;23.132;2022-11-15T04:17:45;19.97;;;19.10;;
12194;SDS011;27023;42.680;23.132;2022-11-15T04:20:14;24.53;;;23.43;;
12194;SDS011;27023;42.680;23.132;2022-11-15T04:23:02;29.67;;;28.13;;
12194;SDS011;27023;42.680;23.132;2022-11-15T04:25:49;27.70;;;26.13;;
12194;SDS011;27023;42.680;23.132;2022-11-15T04:28:17;32.77;;;31.17;;
12194;SDS011;27023;42.680;23.132;2022-11-15T04:30:44;35.47;;;33.73;;
12194;SDS011;27023;42.680;23.132;2022-11-15T04:33:11;28.07;;;26.77;;
12194;SDS011;27023;42.680;23.132;2022-11-15T04:35:38;30.13;;;28.73;;
12194;SDS011;27023;42.680;23.132;2022-11-15T04:38:07;35.93;;;34.03;;
12194;SDS011;27023;42.680;23.132;2022-11-15T04:40:35;33.83;;;31.93;;
12194;SDS011;27023;42.680;23.132;2022-11-15T04:43:01;33.23;;;31.63;;
12194;SDS011;27023;42.680;23.132;2022-11-15T04:45:28;31.23;;;29.77;;
12194;SDS011;27023;42.680;23.132;2022-11-15T04:47:55;36.83;;;34.93;;
12194;SDS011;27023;42.680;23.132;2022-11-15T04:50:22;27.57;;;26.37;;
12194;SDS011;27023;42.680;23.132;2022-11-15T04:52:50;26.50;;;25.30;;
12194;SDS011;27023;42.680;23.132;2022-11-15T04:55:19;36.73;;;34.87;;
12194;SDS011;27023;42.680;23.132;2022-11-15T04:57:46;27.43;;;26.13;;
12194;SDS011;27023;42.680;23.132;2022-11-15T05:00:13;37.23;;;35.30;;
12194;SDS011;27023;42.680;23.132;2022-11-15T05:02:42;31.27;;;29.77;;
12194;SDS011;27023;42.680;23.132;2022-11-15T05:05:26;36.90;;;35.03;;
12194;SDS011;27023;42.680;23.132;2022-11-15T05:07:52;40.80;;;38.77;;
12194;SDS011;27023;42.680;23.132;2022-11-15T05:10:21;31.43;;;29.83;;
12194;SDS011;27023;42.680;23.132;2022-11-15T05:12:47;33.53;;;31.87;;
12194;SDS011;27023;42.680;23.132;2022-11-15T05:15:14;45.50;;;43.20;;
12194;SDS011;27023;42.680;23.132;2022-11-15T05:17:41;45.70;;;43.40;;
12194;SDS011;27023;42.680;23.132;2022-11-15T05:20:08;45.13;;;42.90;;
12194;SDS011;27023;42.680;23.132;2022-11-15T05:22:35;46.30;;;43.93;;
12194;SDS011;27023;42.680;23.132;2022-11-15T05:25:03;36.23;;;34.50;;
12194;SDS011;27023;42.680;23.132;2022-11-15T05:27:32;35.23;;;33.50;;
12194;SDS011;27023;42.680;23.132;2022-11-15T05:29:58;33.03;;;31.43;;
12194;SDS011;27023;42.680;23.132;2022-11-15T05:32:25;34.73;;;32.97;;
12194;SDS011;27023;42.680;23.132;2022-11-15T05:34:52;30.37;;;28.77;;
12194;SDS011;27023;42.680;23.132;2022-11-15T05:37:19;33.03;;;31.43;;
12194;SDS011;27023;42.680;23.132;2022-11-15T05:39:46;35.70;;;33.83;;
12194;SDS011;27023;42.680;23.132;2022-11-15T05:42:13;31.03;;;29.60;;
12194;SDS011;27023;42.680;23.132;2022-11-15T05:44:43;31.50;;;29.90;;
12194;SDS011;27023;42.680;23.132;2022-11-15T05:47:14;37.17;;;35.20;;
12194;SDS011;27023;42.680;23.132;2022-11-15T05:49:45;28.10;;;26.80;;
12194;SDS011;27023;42.680;23.132;2022-11-15T05:52:14;47.17;;;44.67;;
12194;SDS011;27023;42.680;23.132;2022-11-15T05:54:44;44.33;;;42.00;;
12194;SDS011;27023;42.680;23.132;2022-11-15T05:57:11;41.77;;;39.77;;
12194;SDS011;27023;42.680;23.132;2022-11-15T05:59:38;36.37;;;34.47;;
12194;SDS011;27023;42.680;23.132;2022-11-15T06:02:07;37.93;;;36.13;;
12194;SDS011;27023;42.680;23.132;2022-11-15T06:04:34;37.57;;;35.77;;
12194;SDS011;27023;42.680;23.132;2022-11-15T06:07:00;32.57;;;31.03;;
12194;SDS011;27023;42.680;23.132;2022-11-15T06:09:27;33.50;;;31.93;;
12194;SDS011;27023;42.680;23.132;2022-11-15T06:11:54;33.03;;;31.47;;
12194;SDS011;27023;42.680;23.132;2022-11-15T06:14:21;28.87;;;27.57;;
12194;SDS011;27023;42.680;23.132;2022-11-15T06:16:47;35.63;;;33.93;;
12194;SDS011;27023;42.680;23.132;2022-11-15T06:19:15;30.33;;;28.93;;
12194;SDS011;27023;42.680;23.132;2022-11-15T06:21:42;29.43;;;28.03;;
12194;SDS011;27023;42.680;23.132;2022-11-15T06:24:09;29.27;;;27.77;;
12194;SDS011;27023;42.680;23.132;2022-11-15T06:26:36;27.50;;;26.27;;
12194;SDS011;27023;42.680;23.132;2022-11-15T06:29:02;23.87;;;22.77;;
12194;SDS011;27023;42.680;23.132;2022-11-15T06:31:30;27.03;;;25.63;;
12194;SDS011;27023;42.680;23.132;2022-11-15T06:33:56;29.37;;;27.47;;
12194;SDS011;27023;42.680;23.132;2022-11-15T06:36:24;22.87;;;21.87;;
12194;SDS011;27023;42.680;23.132;2022-11-15T06:38:51;25.23;;;24.03;;
12194;SDS011;27023;42.680;23.132;2022-11-15T06:41:18;20.07;;;19.27;;
12194;SDS011;27023;42.680;23.132;2022-11-15T06:43:46;21.90;;;20.97;;
12194;SDS011;27023;42.680;23.132;2022-11-15T06:46:12;26.77;;;25.50;;
12194;SDS011;27023;42.680;23.132;2022-11-15T06:48:39;25.83;;;24.53;;
12194;SDS011;27023;42.680;23.132;2022-11-15T06:51:06;20.60;;;19.67;;
12194;SDS011;27023;42.680;23.132;2022-11-15T06:53:34;25.20;;;24.03;;
12194;SDS011;27023;42.680;23.132;2022-11-15T06:56:02;18.40;;;17.67;;
12194;SDS011;27023;42.680;23.132;2022-11-15T06:58:30;18.37;;;17.57;;
12194;SDS011;27023;42.680;23.132;2022-11-15T07:01:00;19.70;;;18.90;;
12194;SDS011;27023;42.680;23.132;2022-11-15T07:03:27;28.40;;;27.13;;
12194;SDS011;27023;42.680;23.132;2022-11-15T07:05:55;25.67;;;24.37;;
12194;SDS011;27023;42.680;23.132;2022-11-15T07:08:23;23.27;;;22.23;;
12194;SDS011;27023;42.680;23.132;2022-11-15T07:10:54;22.00;;;20.90;;
12194;SDS011;27023;42.680;23.132;2022-11-15T07:13:26;21.50;;;20.60;;
12194;SDS011;27023;42.680;23.132;2022-11-15T07:15:54;20.37;;;19.53;;
12194;SDS011;27023;42.680;23.132;2022-11-15T07:18:21;16.93;;;16.23;;
12194;SDS011;27023;42.680;23.132;2022-11-15T07:20:47;22.13;;;21.17;;
12194;SDS011;27023;42.680;23.132;2022-11-15T07:23:14;18.93;;;18.13;;
12194;SDS011;27023;42.680;23.132;2022-11-15T07:25:41;17.37;;;16.70;;
12194;SDS011;27023;42.680;23.132;2022-11-15T07:28:09;21.73;;;20.83;;
12194;SDS011;27023;42.680;23.132;2022-11-15T07:30:36;21.47;;;20.57;;
12194;SDS011;27023;42.680;23.132;2022-11-15T07:33:02;22.60;;;21.60;;
12194;SDS011;27023;42.680;23.132;2022-11-15T07:35:29;19.13;;;18.33;;
12194;SDS011;27023;42.680;23.132;2022-11-15T07:37:56;19.70;;;18.90;;
12194;SDS011;27023;42.680;23.132;2022-11-15T07:40:24;20.63;;;19.67;;
12194;SDS011;27023;42.680;23.132;2022-11-15T07:42:52;17.60;;;16.83;;
12194;SDS011;27023;42.680;23.132;2022-11-15T07:45:22;19.83;;;18.97;;
12194;SDS011;27023;42.680;23.132;2022-11-15T07:47:51;19.27;;;18.47;;
12194;SDS011;27023;42.680;23.132;2022-11-15T07:50:19;20.37;;;19.30;;
12194;SDS011;27023;42.680;23.132;2022-11-15T07:52:45;18.77;;;17.97;;
12194;SDS011;27023;42.680;23.132;2022-11-15T07:55:12;18.93;;;18.07;;
12194;SDS011;27023;42.680;23.132;2022-11-15T07:57:39;16.77;;;15.97;;
12194;SDS011;27023;42.680;23.132;2022-11-15T08:00:06;16.37;;;15.77;;
12194;SDS011;27023;42.680;23.132;2022-11-15T08:02:35;14.67;;;14.17;;
12194;SDS011;27023;42.680;23.132;2022-11-15T08:05:02;14.73;;;14.23;;
12194;SDS011;27023;42.680;23.132;2022-11-15T08:07:29;15.67;;;15.10;;
12194;SDS011;27023;42.680;23.132;2022-11-15T08:09:56;18.17;;;17.37;;
12194;SDS011;27023;42.680;23.132;2022-11-15T08:12:23;18.67;;;17.93;;
12194;SDS011;27023;42.680;23.132;2022-11-15T08:14:50;17.23;;;16.53;;
12194;SDS011;27023;42.680;23.132;2022-11-15T08:17:17;18.63;;;17.87;;
12194;SDS011;27023;42.680;23.132;2022-11-15T08:19:45;17.27;;;16.60;;
12194;SDS011;27023;42.680;23.132;2022-11-15T08:22:12;16.23;;;15.60;;
12194;SDS011;27023;42.680;23.132;2022-11-15T08:24:38;14.73;;;14.23;;
12194;SDS011;27023;42.680;23.132;2022-11-15T08:27:05;15.33;;;14.73;;
12194;SDS011;27023;42.680;23.132;2022-11-15T08:29:40;17.20;;;16.50;;
12194;SDS011;27023;42.680;23.132;2022-11-15T08:32:07;15.80;;;15.20;;
12194;SDS011;27023;42.680;23.132;2022-11-15T08:34:34;16.57;;;15.97;;
12194;SDS011;27023;42.680;23.132;2022-11-15T08:37:02;15.30;;;14.73;;
12194;SDS011;27023;42.680;23.132;2022-11-15T08:39:29;16.37;;;15.77;;
12194;SDS011;27023;42.680;23.132;2022-11-15T08:41:56;15.00;;;14.50;;
12194;SDS011;27023;42.680;23.132;2022-11-15T08:44:23;15.57;;;14.97;;
12194;SDS011;27023;42.680;23.132;2022-11-15T08:46:50;15.83;;;15.23;;
12194;SDS011;27023;42.680;23.132;2022-11-15T08:49:16;15.23;;;14.67;;
12194;SDS011;27023;42.680;23.132;2022-11-15T08:51:43;27.03;;;25.83;;
12194;SDS011;27023;42.680;23.132;2022-11-15T08:54:11;19.23;;;18.47;;
12194;SDS011;27023;42.680;23.132;2022-11-15T08:56:38;15.53;;;14.90;;
12194;SDS011;27023;42.680;23.132;2022-11-15T08:59:04;14.93;;;14.43;;
12194;SDS011;27023;42.680;23.132;2022-11-15T09:01:31;15.53;;;14.93;;
12194;SDS011;27023;42.680;23.132;2022-11-15T09:03:58;17.53;;;16.87;;
12194;SDS011;27023;42.680;23.132;2022-11-15T09:06:24;15.67;;;15.10;;
12194;SDS011;27023;42.680;23.132;2022-11-15T09:08:51;15.30;;;14.80;;
12194;SDS011;27023;42.680;23.132;2022-11-15T09:11:19;16.37;;;15.77;;
12194;SDS011;27023;42.680;23.132;2022-11-15T09:13:47;15.77;;;15.20;;
12194;SDS011;27023;42.680;23.132;2022-11-15T09:16:13;16.27;;;15.67;;
12194;SDS011;27023;42.680;23.132;2022-11-15T09:18:40;17.33;;;16.53;;
12194;SDS011;27023;42.680;23.132;2022-11-15T09:21:08;15.60;;;15.00;;
12194;SDS011;27023;42.680;23.132;2022-11-15T09:23:35;21.40;;;20.50;;
12194;SDS011;27023;42.680;23.132;2022-11-15T09:26:03;24.07;;;23.00;;
12194;SDS011;27023;42.680;23.132;2022-11-15T09:28:32;24.53;;;23.50;;
12194;SDS011;27023;42.680;23.132;2022-11-15T09:30:59;24.07;;;22.90;;
12194;SDS011;27023;42.680;23.132;2022-11-15T09:33:27;18.87;;;18.13;;
12194;SDS011;27023;42.680;23.132;2022-11-15T09:35:56;16.27;;;15.70;;
12194;SDS011;27023;42.680;23.132;2022-11-15T09:38:26;18.80;;;18.10;;
12194;SDS011;27023;42.680;23.132;2022-11-15T09:40:54;10.30;;;10.00;;
12194;SDS011;27023;42.680;23.132;2022-11-15T09:43:37;11.83;;;11.07;;
12194;SDS011;27023;42.680;23.132;2022-11-15T09:46:13;9.83;;;9.63;;
12194;SDS011;27023;42.680;23.132;2022-11-15T09:48:48;10.43;;;10.13;;
12194;SDS011;27023;42.680;23.132;2022-11-15T09:51:21;11.17;;;10.67;;
12194;SDS011;27023;42.680;23.132;2022-11-15T09:53:56;10.43;;;10.13;;
12194;SDS011;27023;42.680;23.132;2022-11-15T09:56:27;8.00;;;7.90;;
12194;SDS011;27023;42.680;23.132;2022-11-15T09:59:00;9.30;;;9.00;;
12194;SDS011;27023;42.680;23.132;2022-11-15T10:01:44;9.20;;;9.00;;
12194;SDS011;27023;42.680;23.132;2022-11-15T10:04:15;8.70;;;8.50;;
12194;SDS011;27023;42.680;23.132;2022-11-15T10:06:45;7.30;;;7.20;;
12194;SDS011;27023;42.680;23.132;2022-11-15T10:09:18;9.00;;;8.80;;
12194;SDS011;27023;42.680;23.132;2022-11-15T10:11:48;9.50;;;9.30;;
12194;SDS011;27023;42.680;23.132;2022-11-15T10:14:18;10.10;;;9.80;;
12194;SDS011;27023;42.680;23.132;2022-11-15T10:19:38;10.07;;;9.80;;
12194;SDS011;27023;42.680;23.132;2022-11-15T10:22:19;10.50;;;10.20;;
12194;SDS011;27023;42.680;23.132;2022-11-15T10:24:52;12.13;;;11.77;;
12194;SDS011;27023;42.680;23.132;2022-11-15T10:27:36;13.70;;;12.97;;
12194;SDS011;27023;42.680;23.132;2022-11-15T10:30:06;18.50;;;17.77;;
12194;SDS011;27023;42.680;23.132;2022-11-15T10:32:38;13.43;;;13.00;;
12194;SDS011;27023;42.680;23.132;2022-11-15T10:35:15;14.80;;;14.30;;
12194;SDS011;27023;42.680;23.132;2022-11-15T10:37:47;14.03;;;13.53;;
12194;SDS011;27023;42.680;23.132;2022-11-15T10:40:18;11.87;;;11.47;;
12194;SDS011;27023;42.680;23.132;2022-11-15T10:42:46;12.13;;;11.73;;
12194;SDS011;27023;42.680;23.132;2022-11-15T10:45:24;14.50;;;14.00;;
12194;SDS011;27023;42.680;23.132;2022-11-15T10:47:54;11.27;;;10.97;;
12194;SDS011;27023;42.680;23.132;2022-11-15T10:50:48;14.20;;;13.70;;
12194;SDS011;27023;42.680;23.132;2022-11-15T10:53:17;16.37;;;15.67;;
12194;SDS011;27023;42.680;23.132;2022-11-15T10:55:48;12.97;;;12.53;;
12194;SDS011;27023;42.680;23.132;2022-11-15T10:58:20;14.53;;;14.00;;
12194;SDS011;27023;42.680;23.132;2022-11-15T11:00:56;18.03;;;17.33;;
12194;SDS011;27023;42.680;23.132;2022-11-15T11:03:36;16.90;;;16.23;;
12194;SDS011;27023;42.680;23.132;2022-11-15T11:06:05;13.43;;;12.93;;
12194;SDS011;27023;42.680;23.132;2022-11-15T11:08:34;12.70;;;12.10;;
12194;SDS011;27023;42.680;23.132;2022-11-15T11:11:02;13.10;;;12.60;;
12194;SDS011;27023;42.680;23.132;2022-11-15T11:13:31;11.43;;;11.03;;
12194;SDS011;27023;42.680;23.132;2022-11-15T11:16:04;13.63;;;13.13;;
12194;SDS011;27023;42.680;23.132;2022-11-15T11:18:46;16.13;;;15.53;;
12194;SDS011;27023;42.680;23.132;2022-11-15T11:21:22;11.30;;;10.90;;
12194;SDS011;27023;42.680;23.132;2022-11-15T11:23:57;18.00;;;17.13;;
12194;SDS011;27023;42.680;23.132;2022-11-15T11:26:38;16.53;;;15.93;;
12194;SDS011;27023;42.680;23.132;2022-11-15T11:29:14;16.63;;;16.03;;
12194;SDS011;27023;42.680;23.132;2022-11-15T11:31:51;19.27;;;18.47;;
12194;SDS011;27023;42.680;23.132;2022-11-15T11:34:29;17.70;;;16.67;;
12194;SDS011;27023;42.680;23.132;2022-11-15T11:37:03;15.27;;;14.67;;
12194;SDS011;27023;42.680;23.132;2022-11-15T11:39:40;19.43;;;18.53;;
12194;SDS011;27023;42.680;23.132;2022-11-15T11:42:23;16.80;;;16.07;;
12194;SDS011;27023;42.680;23.132;2022-11-15T11:44:58;15.70;;;15.10;;
12194;SDS011;27023;42.680;23.132;2022-11-15T11:47:35;13.23;;;12.73;;
12194;SDS011;27023;42.680;23.132;2022-11-15T11:50:10;15.13;;;14.63;;
12194;SDS011;27023;42.680;23.132;2022-11-15T11:52:43;14.47;;;13.33;;
12194;SDS011;27023;42.680;23.132;2022-11-15T11:55:15;16.67;;;15.77;;
12194;SDS011;27023;42.680;23.132;2022-11-15T11:57:45;15.20;;;14.40;;
12194;SDS011;27023;42.680;23.132;2022-11-15T12:00:18;17.33;;;16.17;;
12194;SDS011;27023;42.680;23.132;2022-11-15T12:02:49;18.63;;;17.57;;
12194;SDS011;27023;42.680;23.132;2022-11-15T12:05:30;17.57;;;16.77;;
12194;SDS011;27023;42.680;23.132;2022-11-15T12:08:03;13.73;;;13.17;;
12194;SDS011;27023;42.680;23.132;2022-11-15T12:10:41;16.00;;;15.27;;
12194;SDS011;27023;42.680;23.132;2022-11-15T12:13:16;20.83;;;20.00;;
12194;SDS011;27023;42.680;23.132;2022-11-15T12:15:47;19.27;;;18.43;;
12194;SDS011;27023;42.680;23.132;2022-11-15T12:18:21;19.87;;;18.87;;
12194;SDS011;27023;42.680;23.132;2022-11-15T12:20:51;20.50;;;19.60;;
12194;SDS011;27023;42.680;23.132;2022-11-15T12:23:23;21.00;;;20.10;;
12194;SDS011;27023;42.680;23.132;2022-11-15T12:25:54;19.73;;;18.90;;
12194;SDS011;27023;42.680;23.132;2022-11-15T12:28:30;21.57;;;20.07;;
12194;SDS011;27023;42.680;23.132;2022-11-15T12:31:05;24.57;;;23.33;;
12194;SDS011;27023;42.680;23.132;2022-11-15T12:33:41;21.60;;;20.70;;
12194;SDS011;27023;42.680;23.132;2022-11-15T12:36:10;24.07;;;22.50;;
12194;SDS011;27023;42.680;23.132;2022-11-15T12:38:56;18.90;;;18.10;;
12194;SDS011;27023;42.680;23.132;2022-11-15T12:41:24;22.23;;;21.00;;
12194;SDS011;27023;42.680;23.132;2022-11-15T12:43:52;19.87;;;18.97;;
12194;SDS011;27023;42.680;23.132;2022-11-15T12:46:21;21.27;;;20.37;;
12194;SDS011;27023;42.680;23.132;2022-11-15T12:48:53;21.13;;;20.17;;
12194;SDS011;27023;42.680;23.132;2022-11-15T12:51:22;18.60;;;17.83;;
12194;SDS011;27023;42.680;23.132;2022-11-15T12:57:25;21.37;;;20.43;;
12194;SDS011;27023;42.680;23.132;2022-11-15T12:59:55;21.87;;;20.77;;
12194;SDS011;27023;42.680;23.132;2022-11-15T13:02:26;16.50;;;15.90;;
12194;SDS011;27023;42.680;23.132;2022-11-15T13:08:06;16.63;;;16.03;;
12194;SDS011;27023;42.680;23.132;2022-11-15T13:10:34;16.87;;;16.03;;
12194;SDS011;27023;42.680;23.132;2022-11-15T13:13:01;16.03;;;15.07;;
12194;SDS011;27023;42.680;23.132;2022-11-15T13:15:40;17.53;;;16.53;;
12194;SDS011;27023;42.680;23.132;2022-11-15T13:21:21;21.23;;;20.33;;
12194;SDS011;27023;42.680;23.132;2022-11-15T13:24:15;13.17;;;12.77;;
12194;SDS011;27023;42.680;23.132;2022-11-15T13:26:43;15.73;;;15.13;;
12194;SDS011;27023;42.680;23.132;2022-11-15T13:29:14;15.60;;;15.00;;
12194;SDS011;27023;42.680;23.132;2022-11-15T13:31:43;22.53;;;21.57;;
12194;SDS011;27023;42.680;23.132;2022-11-15T13:34:15;18.67;;;17.97;;
12194;SDS011;27023;42.680;23.132;2022-11-15T13:36:54;17.90;;;17.00;;
12194;SDS011;27023;42.680;23.132;2022-11-15T13:39:28;15.27;;;14.70;;
12194;SDS011;27023;42.680;23.132;2022-11-15T13:41:56;15.77;;;15.17;;
12194;SDS011;27023;42.680;23.132;2022-11-15T13:44:24;20.23;;;19.30;;
12194;SDS011;27023;42.680;23.132;2022-11-15T13:47:03;18.10;;;17.27;;
12194;SDS011;27023;42.680;23.132;2022-11-15T13:49:30;16.23;;;15.53;;
12194;SDS011;27023;42.680;23.132;2022-11-15T13:52:00;20.00;;;19.00;;
12194;SDS011;27023;42.680;23.132;2022-11-15T13:54:29;20.50;;;19.43;;
12194;SDS011;27023;42.680;23.132;2022-11-15T13:56:59;20.53;;;19.50;;
12194;SDS011;27023;42.680;23.132;2022-11-15T13:59:30;24.63;;;23.33;;
12194;SDS011;27023;42.680;23.132;2022-11-15T14:02:12;18.07;;;17.37;;
12194;SDS011;27023;42.680;23.132;2022-11-15T14:04:45;20.37;;;19.53;;
12194;SDS011;27023;42.680;23.132;2022-11-15T14:07:17;21.57;;;20.47;;
12194;SDS011;27023;42.680;23.132;2022-11-15T14:09:45;20.93;;;18.80;;
12194;SDS011;27023;42.680;23.132;2022-11-15T14:12:22;26.60;;;24.60;;
12194;SDS011;27023;42.680;23.132;2022-11-15T14:14:52;29.30;;;27.43;;
12194;SDS011;27023;42.680;23.132;2022-11-15T14:17:20;23.13;;;22.13;;
12194;SDS011;27023;42.680;23.132;2022-11-15T14:19:48;22.90;;;21.90;;
12194;SDS011;27023;42.680;23.132;2022-11-15T14:22:19;25.20;;;24.10;;
12194;SDS011;27023;42.680;23.132;2022-11-15T14:24:50;21.10;;;20.20;;
12194;SDS011;27023;42.680;23.132;2022-11-15T14:27:32;27.53;;;26.27;;
12194;SDS011;27023;42.680;23.132;2022-11-15T14:29:59;22.60;;;21.60;;
12194;SDS011;27023;42.680;23.132;2022-11-15T14:32:27;22.90;;;21.90;;
12194;SDS011;27023;42.680;23.132;2022-11-15T14:34:55;25.73;;;24.57;;
12194;SDS011;27023;42.680;23.132;2022-11-15T14:37:25;23.63;;;22.57;;
12194;SDS011;27023;42.680;23.132;2022-11-15T14:39:53;26.13;;;24.33;;